All City Stadium (Denver), Colorado
Current Conditions -  °F | °C
As of 12:53 AM on Friday 24 Oct 2014 (Local Time) from KAPA Reporting Station
Broken Clouds Broken Clouds  
Wind Chill: 14°   Ceiling: 25000
Heat Index: 14°   Visibility: 10mi
Dew Point: -2°   Wind: 12mph
Humidity: 34%   Direction: 170°S
Pressure: 30.16"   Gusts: NA
Location:  39.69109°N, 104.9663°W
Report Text: KAPA 240653Z 17010KT 10SM FEW120 BKN250 14/M02 A3016 RMK AO2 SLP160 T01391017 402220039
Loading
Personal Weather Stations






























Interactive Weather Map
Tropical Storm Tracking
New forecast layout! Learn more

10-Day Weather Forecast

Advertisements
Track Severe Weather on mobile